sensor_id;sensor_type;location;lat;lon;timestamp;P1;durP1;ratioP1;P2;durP2;ratioP2
16994;SDS011;8614;48.522;9.206;2024-01-15T00:00:59;22.77;;;19.77;;
16994;SDS011;8614;48.522;9.206;2024-01-15T00:03:26;23.77;;;20.87;;
16994;SDS011;8614;48.522;9.206;2024-01-15T00:05:53;22.23;;;19.57;;
16994;SDS011;8614;48.522;9.206;2024-01-15T00:08:20;22.07;;;19.70;;
16994;SDS011;8614;48.522;9.206;2024-01-15T00:10:47;21.97;;;19.63;;
16994;SDS011;8614;48.522;9.206;2024-01-15T00:13:13;23.67;;;20.37;;
16994;SDS011;8614;48.522;9.206;2024-01-15T00:15:40;24.57;;;20.77;;
16994;SDS011;8614;48.522;9.206;2024-01-15T00:18:08;22.10;;;19.70;;
16994;SDS011;8614;48.522;9.206;2024-01-15T00:20:35;24.60;;;19.97;;
16994;SDS011;8614;48.522;9.206;2024-01-15T00:23:02;26.97;;;20.03;;
16994;SDS011;8614;48.522;9.206;2024-01-15T00:25:29;22.50;;;20.27;;
16994;SDS011;8614;48.522;9.206;2024-01-15T00:27:56;23.90;;;20.50;;
16994;SDS011;8614;48.522;9.206;2024-01-15T00:30:23;20.97;;;18.87;;
16994;SDS011;8614;48.522;9.206;2024-01-15T00:32:49;23.27;;;19.80;;
16994;SDS011;8614;48.522;9.206;2024-01-15T00:35:17;22.43;;;19.30;;
16994;SDS011;8614;48.522;9.206;2024-01-15T00:37:44;25.67;;;20.47;;
16994;SDS011;8614;48.522;9.206;2024-01-15T00:40:11;22.70;;;19.77;;
16994;SDS011;8614;48.522;9.206;2024-01-15T00:42:38;21.80;;;19.53;;
16994;SDS011;8614;48.522;9.206;2024-01-15T00:45:05;24.80;;;20.20;;
16994;SDS011;8614;48.522;9.206;2024-01-15T00:47:33;25.43;;;20.70;;
16994;SDS011;8614;48.522;9.206;2024-01-15T00:49:59;23.90;;;20.93;;
16994;SDS011;8614;48.522;9.206;2024-01-15T00:52:27;25.30;;;20.53;;
16994;SDS011;8614;48.522;9.206;2024-01-15T00:54:54;23.17;;;20.10;;
16994;SDS011;8614;48.522;9.206;2024-01-15T00:57:21;25.03;;;20.07;;
16994;SDS011;8614;48.522;9.206;2024-01-15T00:59:48;21.93;;;19.70;;
16994;SDS011;8614;48.522;9.206;2024-01-15T01:02:15;24.83;;;20.70;;
16994;SDS011;8614;48.522;9.206;2024-01-15T01:04:42;23.50;;;20.87;;
16994;SDS011;8614;48.522;9.206;2024-01-15T01:07:09;24.93;;;21.07;;
16994;SDS011;8614;48.522;9.206;2024-01-15T01:09:37;23.90;;;20.13;;
16994;SDS011;8614;48.522;9.206;2024-01-15T01:12:04;23.67;;;20.03;;
16994;SDS011;8614;48.522;9.206;2024-01-15T01:14:31;25.00;;;20.23;;
16994;SDS011;8614;48.522;9.206;2024-01-15T01:16:58;21.77;;;19.47;;
16994;SDS011;8614;48.522;9.206;2024-01-15T01:19:25;26.47;;;21.73;;
16994;SDS011;8614;48.522;9.206;2024-01-15T01:21:51;25.47;;;20.23;;
16994;SDS011;8614;48.522;9.206;2024-01-15T01:24:18;21.80;;;19.63;;
16994;SDS011;8614;48.522;9.206;2024-01-15T01:26:46;24.57;;;19.87;;
16994;SDS011;8614;48.522;9.206;2024-01-15T01:29:14;27.70;;;22.07;;
16994;SDS011;8614;48.522;9.206;2024-01-15T01:31:43;24.67;;;21.93;;
16994;SDS011;8614;48.522;9.206;2024-01-15T01:34:10;22.80;;;20.23;;
16994;SDS011;8614;48.522;9.206;2024-01-15T01:36:39;25.07;;;19.43;;
16994;SDS011;8614;48.522;9.206;2024-01-15T01:39:06;24.63;;;20.00;;
16994;SDS011;8614;48.522;9.206;2024-01-15T01:41:34;27.67;;;20.57;;
16994;SDS011;8614;48.522;9.206;2024-01-15T01:44:02;22.30;;;18.83;;
16994;SDS011;8614;48.522;9.206;2024-01-15T01:46:29;24.80;;;20.80;;
16994;SDS011;8614;48.522;9.206;2024-01-15T01:48:57;22.50;;;20.20;;
16994;SDS011;8614;48.522;9.206;2024-01-15T01:51:28;24.50;;;19.73;;
16994;SDS011;8614;48.522;9.206;2024-01-15T01:53:55;20.77;;;18.57;;
16994;SDS011;8614;48.522;9.206;2024-01-15T01:56:22;24.20;;;20.73;;
16994;SDS011;8614;48.522;9.206;2024-01-15T01:58:49;21.83;;;19.53;;
16994;SDS011;8614;48.522;9.206;2024-01-15T02:01:17;20.73;;;18.43;;
16994;SDS011;8614;48.522;9.206;2024-01-15T02:03:45;24.50;;;20.23;;
16994;SDS011;8614;48.522;9.206;2024-01-15T02:06:12;26.27;;;19.87;;
16994;SDS011;8614;48.522;9.206;2024-01-15T02:08:39;22.30;;;18.23;;
16994;SDS011;8614;48.522;9.206;2024-01-15T02:11:09;23.03;;;19.37;;
16994;SDS011;8614;48.522;9.206;2024-01-15T02:13:36;23.40;;;19.20;;
16994;SDS011;8614;48.522;9.206;2024-01-15T02:16:04;27.20;;;19.90;;
16994;SDS011;8614;48.522;9.206;2024-01-15T02:18:40;21.53;;;18.93;;
16994;SDS011;8614;48.522;9.206;2024-01-15T02:21:07;24.10;;;19.83;;
16994;SDS011;8614;48.522;9.206;2024-01-15T02:23:36;24.23;;;19.60;;
16994;SDS011;8614;48.522;9.206;2024-01-15T02:26:03;23.03;;;19.47;;
16994;SDS011;8614;48.522;9.206;2024-01-15T02:28:31;23.83;;;18.73;;
16994;SDS011;8614;48.522;9.206;2024-01-15T02:30:59;24.10;;;19.83;;
16994;SDS011;8614;48.522;9.206;2024-01-15T02:33:26;22.50;;;19.80;;
16994;SDS011;8614;48.522;9.206;2024-01-15T02:35:53;24.77;;;19.13;;
16994;SDS011;8614;48.522;9.206;2024-01-15T02:38:19;22.30;;;18.60;;
16994;SDS011;8614;48.522;9.206;2024-01-15T02:40:47;22.60;;;19.47;;
16994;SDS011;8614;48.522;9.206;2024-01-15T02:43:15;21.33;;;18.67;;
16994;SDS011;8614;48.522;9.206;2024-01-15T02:45:44;22.03;;;19.13;;
16994;SDS011;8614;48.522;9.206;2024-01-15T02:48:11;21.60;;;18.80;;
16994;SDS011;8614;48.522;9.206;2024-01-15T02:50:37;21.17;;;18.87;;
16994;SDS011;8614;48.522;9.206;2024-01-15T02:53:05;20.43;;;17.70;;
16994;SDS011;8614;48.522;9.206;2024-01-15T02:55:31;24.00;;;19.53;;
16994;SDS011;8614;48.522;9.206;2024-01-15T02:57:59;23.03;;;19.50;;
16994;SDS011;8614;48.522;9.206;2024-01-15T03:00:26;22.53;;;18.77;;
16994;SDS011;8614;48.522;9.206;2024-01-15T03:02:54;20.80;;;18.07;;
16994;SDS011;8614;48.522;9.206;2024-01-15T03:05:21;20.93;;;17.57;;
16994;SDS011;8614;48.522;9.206;2024-01-15T03:07:48;20.77;;;17.60;;
16994;SDS011;8614;48.522;9.206;2024-01-15T03:10:15;19.03;;;17.03;;
16994;SDS011;8614;48.522;9.206;2024-01-15T03:12:41;22.83;;;18.80;;
16994;SDS011;8614;48.522;9.206;2024-01-15T03:15:10;20.30;;;18.17;;
16994;SDS011;8614;48.522;9.206;2024-01-15T03:17:37;20.70;;;18.03;;
16994;SDS011;8614;48.522;9.206;2024-01-15T03:20:04;20.57;;;17.83;;
16994;SDS011;8614;48.522;9.206;2024-01-15T03:22:31;20.23;;;17.77;;
16994;SDS011;8614;48.522;9.206;2024-01-15T03:24:58;19.93;;;17.73;;
16994;SDS011;8614;48.522;9.206;2024-01-15T03:27:25;20.83;;;17.87;;
16994;SDS011;8614;48.522;9.206;2024-01-15T03:29:51;19.83;;;16.87;;
16994;SDS011;8614;48.522;9.206;2024-01-15T03:32:20;18.77;;;16.50;;
16994;SDS011;8614;48.522;9.206;2024-01-15T03:34:46;19.20;;;17.17;;
16994;SDS011;8614;48.522;9.206;2024-01-15T03:37:13;22.00;;;18.43;;
16994;SDS011;8614;48.522;9.206;2024-01-15T03:39:40;17.90;;;16.20;;
16994;SDS011;8614;48.522;9.206;2024-01-15T03:42:07;20.53;;;18.43;;
16994;SDS011;8614;48.522;9.206;2024-01-15T03:44:33;19.03;;;17.00;;
16994;SDS011;8614;48.522;9.206;2024-01-15T03:47:00;21.20;;;17.87;;
16994;SDS011;8614;48.522;9.206;2024-01-15T03:49:28;20.67;;;18.47;;
16994;SDS011;8614;48.522;9.206;2024-01-15T03:51:55;22.30;;;17.63;;
16994;SDS011;8614;48.522;9.206;2024-01-15T03:54:22;22.10;;;18.10;;
16994;SDS011;8614;48.522;9.206;2024-01-15T03:56:49;21.00;;;18.13;;
16994;SDS011;8614;48.522;9.206;2024-01-15T03:59:15;21.67;;;18.63;;
16994;SDS011;8614;48.522;9.206;2024-01-15T04:01:47;24.30;;;18.03;;
16994;SDS011;8614;48.522;9.206;2024-01-15T04:04:15;27.10;;;18.80;;
16994;SDS011;8614;48.522;9.206;2024-01-15T04:06:45;20.43;;;17.30;;
16994;SDS011;8614;48.522;9.206;2024-01-15T04:09:12;21.43;;;19.03;;
16994;SDS011;8614;48.522;9.206;2024-01-15T04:11:39;21.57;;;17.70;;
16994;SDS011;8614;48.522;9.206;2024-01-15T04:14:06;21.53;;;17.70;;
16994;SDS011;8614;48.522;9.206;2024-01-15T04:16:32;20.13;;;17.97;;
16994;SDS011;8614;48.522;9.206;2024-01-15T04:18:59;23.87;;;18.90;;
16994;SDS011;8614;48.522;9.206;2024-01-15T04:21:26;24.73;;;18.13;;
16994;SDS011;8614;48.522;9.206;2024-01-15T04:23:54;21.40;;;18.83;;
16994;SDS011;8614;48.522;9.206;2024-01-15T04:26:21;19.90;;;17.80;;
16994;SDS011;8614;48.522;9.206;2024-01-15T04:28:50;21.97;;;18.40;;
16994;SDS011;8614;48.522;9.206;2024-01-15T04:31:20;24.60;;;19.40;;
16994;SDS011;8614;48.522;9.206;2024-01-15T04:33:48;21.90;;;18.57;;
16994;SDS011;8614;48.522;9.206;2024-01-15T04:36:15;23.83;;;18.47;;
16994;SDS011;8614;48.522;9.206;2024-01-15T04:38:41;20.57;;;18.57;;
16994;SDS011;8614;48.522;9.206;2024-01-15T04:41:11;21.63;;;18.73;;
16994;SDS011;8614;48.522;9.206;2024-01-15T04:43:38;21.23;;;18.07;;
16994;SDS011;8614;48.522;9.206;2024-01-15T04:46:05;22.10;;;18.57;;
16994;SDS011;8614;48.522;9.206;2024-01-15T04:48:32;21.63;;;18.53;;
16994;SDS011;8614;48.522;9.206;2024-01-15T04:50:59;27.23;;;19.57;;
16994;SDS011;8614;48.522;9.206;2024-01-15T04:53:26;25.90;;;19.37;;
16994;SDS011;8614;48.522;9.206;2024-01-15T04:55:53;22.73;;;18.73;;
16994;SDS011;8614;48.522;9.206;2024-01-15T04:58:21;21.10;;;18.97;;
16994;SDS011;8614;48.522;9.206;2024-01-15T05:00:50;21.43;;;19.20;;
16994;SDS011;8614;48.522;9.206;2024-01-15T05:03:17;24.33;;;19.57;;
16994;SDS011;8614;48.522;9.206;2024-01-15T05:05:44;27.33;;;20.03;;
16994;SDS011;8614;48.522;9.206;2024-01-15T05:08:11;22.60;;;19.00;;
16994;SDS011;8614;48.522;9.206;2024-01-15T05:10:38;25.27;;;20.33;;
16994;SDS011;8614;48.522;9.206;2024-01-15T05:13:04;23.17;;;20.03;;
16994;SDS011;8614;48.522;9.206;2024-01-15T05:15:33;23.77;;;19.97;;
16994;SDS011;8614;48.522;9.206;2024-01-15T05:17:59;24.63;;;19.37;;
16994;SDS011;8614;48.522;9.206;2024-01-15T05:20:26;23.33;;;19.27;;
16994;SDS011;8614;48.522;9.206;2024-01-15T05:22:53;23.90;;;19.47;;
16994;SDS011;8614;48.522;9.206;2024-01-15T05:25:20;22.13;;;19.50;;
16994;SDS011;8614;48.522;9.206;2024-01-15T05:27:47;23.20;;;19.20;;
16994;SDS011;8614;48.522;9.206;2024-01-15T05:30:14;24.30;;;19.73;;
16994;SDS011;8614;48.522;9.206;2024-01-15T05:32:42;21.07;;;18.77;;
16994;SDS011;8614;48.522;9.206;2024-01-15T05:35:09;21.87;;;19.27;;
16994;SDS011;8614;48.522;9.206;2024-01-15T05:37:36;22.17;;;18.80;;
16994;SDS011;8614;48.522;9.206;2024-01-15T05:40:05;22.17;;;19.27;;
16994;SDS011;8614;48.522;9.206;2024-01-15T05:42:32;22.23;;;18.90;;
16994;SDS011;8614;48.522;9.206;2024-01-15T05:44:59;20.53;;;18.33;;
16994;SDS011;8614;48.522;9.206;2024-01-15T05:47:28;23.43;;;18.70;;
16994;SDS011;8614;48.522;9.206;2024-01-15T05:49:56;20.40;;;17.87;;
16994;SDS011;8614;48.522;9.206;2024-01-15T05:52:23;21.03;;;18.83;;
16994;SDS011;8614;48.522;9.206;2024-01-15T05:54:50;19.50;;;17.33;;
16994;SDS011;8614;48.522;9.206;2024-01-15T05:57:16;21.50;;;17.87;;
16994;SDS011;8614;48.522;9.206;2024-01-15T05:59:44;20.13;;;17.97;;
16994;SDS011;8614;48.522;9.206;2024-01-15T06:02:11;19.80;;;17.37;;
16994;SDS011;8614;48.522;9.206;2024-01-15T06:04:38;21.23;;;19.03;;
16994;SDS011;8614;48.522;9.206;2024-01-15T06:07:06;21.03;;;18.00;;
16994;SDS011;8614;48.522;9.206;2024-01-15T06:09:33;21.20;;;19.20;;
16994;SDS011;8614;48.522;9.206;2024-01-15T06:11:59;21.97;;;19.57;;
16994;SDS011;8614;48.522;9.206;2024-01-15T06:14:26;21.90;;;18.50;;
16994;SDS011;8614;48.522;9.206;2024-01-15T06:16:53;21.10;;;18.90;;
16994;SDS011;8614;48.522;9.206;2024-01-15T06:19:20;21.37;;;19.17;;
16994;SDS011;8614;48.522;9.206;2024-01-15T06:21:46;21.43;;;19.17;;
16994;SDS011;8614;48.522;9.206;2024-01-15T06:24:14;21.43;;;19.17;;
16994;SDS011;8614;48.522;9.206;2024-01-15T06:26:43;22.57;;;20.23;;
16994;SDS011;8614;48.522;9.206;2024-01-15T06:29:09;24.03;;;20.33;;
16994;SDS011;8614;48.522;9.206;2024-01-15T06:31:36;23.47;;;20.97;;
16994;SDS011;8614;48.522;9.206;2024-01-15T06:34:03;22.70;;;20.23;;
16994;SDS011;8614;48.522;9.206;2024-01-15T06:36:30;23.43;;;20.13;;
16994;SDS011;8614;48.522;9.206;2024-01-15T06:38:57;21.40;;;19.10;;
16994;SDS011;8614;48.522;9.206;2024-01-15T06:41:25;24.33;;;20.57;;
16994;SDS011;8614;48.522;9.206;2024-01-15T06:43:52;26.07;;;20.30;;
16994;SDS011;8614;48.522;9.206;2024-01-15T06:46:22;21.97;;;19.80;;
16994;SDS011;8614;48.522;9.206;2024-01-15T06:48:49;21.47;;;18.97;;
16994;SDS011;8614;48.522;9.206;2024-01-15T06:51:16;21.43;;;19.17;;
16994;SDS011;8614;48.522;9.206;2024-01-15T06:53:43;20.67;;;18.50;;
16994;SDS011;8614;48.522;9.206;2024-01-15T06:56:10;21.90;;;19.37;;
16994;SDS011;8614;48.522;9.206;2024-01-15T06:58:38;21.77;;;19.40;;
16994;SDS011;8614;48.522;9.206;2024-01-15T07:01:05;20.90;;;18.70;;
16994;SDS011;8614;48.522;9.206;2024-01-15T07:03:33;21.50;;;19.30;;
16994;SDS011;8614;48.522;9.206;2024-01-15T07:05:59;22.20;;;19.87;;
16994;SDS011;8614;48.522;9.206;2024-01-15T07:08:26;21.30;;;19.13;;
16994;SDS011;8614;48.522;9.206;2024-01-15T07:10:53;20.67;;;18.63;;
16994;SDS011;8614;48.522;9.206;2024-01-15T07:13:20;22.33;;;20.03;;
16994;SDS011;8614;48.522;9.206;2024-01-15T07:15:48;21.00;;;18.70;;
16994;SDS011;8614;48.522;9.206;2024-01-15T07:18:15;19.50;;;17.57;;
16994;SDS011;8614;48.522;9.206;2024-01-15T07:20:42;19.93;;;17.93;;
16994;SDS011;8614;48.522;9.206;2024-01-15T07:23:09;21.23;;;19.03;;
16994;SDS011;8614;48.522;9.206;2024-01-15T07:25:36;20.57;;;18.40;;
16994;SDS011;8614;48.522;9.206;2024-01-15T07:28:03;21.13;;;19.03;;
16994;SDS011;8614;48.522;9.206;2024-01-15T07:30:30;20.83;;;18.67;;
16994;SDS011;8614;48.522;9.206;2024-01-15T07:32:58;20.07;;;17.83;;
16994;SDS011;8614;48.522;9.206;2024-01-15T07:35:25;22.37;;;18.07;;
16994;SDS011;8614;48.522;9.206;2024-01-15T07:37:52;18.13;;;16.50;;
16994;SDS011;8614;48.522;9.206;2024-01-15T07:40:19;18.53;;;16.63;;
16994;SDS011;8614;48.522;9.206;2024-01-15T07:42:46;17.87;;;16.17;;
16994;SDS011;8614;48.522;9.206;2024-01-15T07:45:13;18.60;;;16.70;;
16994;SDS011;8614;48.522;9.206;2024-01-15T07:47:40;18.07;;;16.30;;
16994;SDS011;8614;48.522;9.206;2024-01-15T07:50:08;18.23;;;16.33;;
16994;SDS011;8614;48.522;9.206;2024-01-15T07:52:35;18.10;;;16.33;;
16994;SDS011;8614;48.522;9.206;2024-01-15T07:55:02;18.90;;;16.90;;
16994;SDS011;8614;48.522;9.206;2024-01-15T07:57:30;19.63;;;17.83;;
16994;SDS011;8614;48.522;9.206;2024-01-15T07:59:57;18.80;;;16.97;;
16994;SDS011;8614;48.522;9.206;2024-01-15T08:02:24;19.07;;;17.20;;
16994;SDS011;8614;48.522;9.206;2024-01-15T08:04:51;17.77;;;16.00;;
16994;SDS011;8614;48.522;9.206;2024-01-15T08:07:19;18.63;;;16.93;;
16994;SDS011;8614;48.522;9.206;2024-01-15T08:09:45;18.43;;;16.73;;
16994;SDS011;8614;48.522;9.206;2024-01-15T08:12:14;17.70;;;15.90;;
16994;SDS011;8614;48.522;9.206;2024-01-15T08:14:41;17.57;;;15.90;;
16994;SDS011;8614;48.522;9.206;2024-01-15T08:17:07;17.33;;;15.80;;
16994;SDS011;8614;48.522;9.206;2024-01-15T08:19:34;17.53;;;15.53;;
16994;SDS011;8614;48.522;9.206;2024-01-15T08:22:01;17.83;;;16.17;;
16994;SDS011;8614;48.522;9.206;2024-01-15T08:24:29;18.27;;;16.53;;
16994;SDS011;8614;48.522;9.206;2024-01-15T08:26:56;16.83;;;15.33;;
16994;SDS011;8614;48.522;9.206;2024-01-15T08:29:23;17.40;;;15.90;;
16994;SDS011;8614;48.522;9.206;2024-01-15T08:31:50;20.00;;;16.70;;
16994;SDS011;8614;48.522;9.206;2024-01-15T08:34:27;19.87;;;17.10;;
16994;SDS011;8614;48.522;9.206;2024-01-15T08:37:02;19.47;;;17.47;;
16994;SDS011;8614;48.522;9.206;2024-01-15T08:39:39;17.50;;;15.80;;
16994;SDS011;8614;48.522;9.206;2024-01-15T08:42:06;17.50;;;16.00;;
16994;SDS011;8614;48.522;9.206;2024-01-15T08:44:36;17.23;;;15.73;;
16994;SDS011;8614;48.522;9.206;2024-01-15T08:47:04;15.80;;;14.50;;
16994;SDS011;8614;48.522;9.206;2024-01-15T08:49:31;15.27;;;13.97;;
16994;SDS011;8614;48.522;9.206;2024-01-15T08:51:58;15.93;;;14.50;;
16994;SDS011;8614;48.522;9.206;2024-01-15T08:54:25;16.03;;;14.63;;
16994;SDS011;8614;48.522;9.206;2024-01-15T08:56:53;14.90;;;13.53;;
16994;SDS011;8614;48.522;9.206;2024-01-15T08:59:19;14.47;;;13.37;;
16994;SDS011;8614;48.522;9.206;2024-01-15T09:01:50;14.40;;;13.27;;
16994;SDS011;8614;48.522;9.206;2024-01-15T09:04:17;14.17;;;13.07;;
16994;SDS011;8614;48.522;9.206;2024-01-15T09:06:44;14.23;;;13.13;;
16994;SDS011;8614;48.522;9.206;2024-01-15T09:09:12;14.13;;;13.03;;
16994;SDS011;8614;48.522;9.206;2024-01-15T09:11:39;14.30;;;13.20;;
16994;SDS011;8614;48.522;9.206;2024-01-15T09:14:08;14.00;;;12.93;;
16994;SDS011;8614;48.522;9.206;2024-01-15T09:16:34;14.30;;;13.27;;
16994;SDS011;8614;48.522;9.206;2024-01-15T09:19:01;14.57;;;13.47;;
16994;SDS011;8614;48.522;9.206;2024-01-15T09:21:29;14.43;;;13.20;;
16994;SDS011;8614;48.522;9.206;2024-01-15T09:23:55;13.50;;;12.50;;
16994;SDS011;8614;48.522;9.206;2024-01-15T09:26:23;14.70;;;13.57;;
16994;SDS011;8614;48.522;9.206;2024-01-15T09:28:50;14.00;;;12.90;;
16994;SDS011;8614;48.522;9.206;2024-01-15T09:31:18;14.17;;;13.17;;
16994;SDS011;8614;48.522;9.206;2024-01-15T09:33:45;12.30;;;11.50;;
16994;SDS011;8614;48.522;9.206;2024-01-15T09:36:11;12.57;;;11.67;;
16994;SDS011;8614;48.522;9.206;2024-01-15T09:38:39;13.30;;;12.40;;
16994;SDS011;8614;48.522;9.206;2024-01-15T09:41:07;13.50;;;12.50;;
16994;SDS011;8614;48.522;9.206;2024-01-15T09:43:34;13.50;;;12.50;;
16994;SDS011;8614;48.522;9.206;2024-01-15T09:46:02;13.67;;;12.70;;
16994;SDS011;8614;48.522;9.206;2024-01-15T09:48:31;12.97;;;12.17;;
16994;SDS011;8614;48.522;9.206;2024-01-15T09:51:00;13.10;;;12.20;;
16994;SDS011;8614;48.522;9.206;2024-01-15T09:53:27;12.87;;;11.93;;
16994;SDS011;8614;48.522;9.206;2024-01-15T09:55:54;13.63;;;12.63;;
16994;SDS011;8614;48.522;9.206;2024-01-15T09:58:22;12.80;;;11.73;;
16994;SDS011;8614;48.522;9.206;2024-01-15T10:00:49;13.07;;;12.17;;
16994;SDS011;8614;48.522;9.206;2024-01-15T10:03:17;12.73;;;11.83;;
16994;SDS011;8614;48.522;9.206;2024-01-15T10:05:47;12.87;;;12.00;;
16994;SDS011;8614;48.522;9.206;2024-01-15T10:08:16;12.60;;;11.70;;
16994;SDS011;8614;48.522;9.206;2024-01-15T10:10:43;13.63;;;12.73;;
16994;SDS011;8614;48.522;9.206;2024-01-15T10:13:10;13.27;;;12.40;;
16994;SDS011;8614;48.522;9.206;2024-01-15T10:15:38;13.10;;;12.20;;
16994;SDS011;8614;48.522;9.206;2024-01-15T10:18:05;12.90;;;12.00;;
16994;SDS011;8614;48.522;9.206;2024-01-15T10:20:31;13.23;;;12.33;;
16994;SDS011;8614;48.522;9.206;2024-01-15T10:23:00;13.10;;;12.17;;
16994;SDS011;8614;48.522;9.206;2024-01-15T10:25:27;12.83;;;11.93;;
16994;SDS011;8614;48.522;9.206;2024-01-15T10:28:00;12.80;;;11.90;;
16994;SDS011;8614;48.522;9.206;2024-01-15T10:30:27;12.97;;;12.07;;
16994;SDS011;8614;48.522;9.206;2024-01-15T10:32:58;12.63;;;11.83;;
16994;SDS011;8614;48.522;9.206;2024-01-15T10:35:26;13.00;;;12.20;;
16994;SDS011;8614;48.522;9.206;2024-01-15T10:37:54;13.40;;;12.23;;
16994;SDS011;8614;48.522;9.206;2024-01-15T10:40:25;13.93;;;12.77;;
16994;SDS011;8614;48.522;9.206;2024-01-15T10:42:52;13.70;;;12.70;;
16994;SDS011;8614;48.522;9.206;2024-01-15T10:45:19;13.63;;;12.53;;
16994;SDS011;8614;48.522;9.206;2024-01-15T10:47:46;12.60;;;11.80;;
16994;SDS011;8614;48.522;9.206;2024-01-15T10:50:14;13.03;;;12.23;;
16994;SDS011;8614;48.522;9.206;2024-01-15T10:52:42;13.17;;;12.23;;
16994;SDS011;8614;48.522;9.206;2024-01-15T10:55:09;12.47;;;11.50;;
16994;SDS011;8614;48.522;9.206;2024-01-15T10:57:38;12.20;;;11.40;;
16994;SDS011;8614;48.522;9.206;2024-01-15T11:00:05;12.20;;;11.50;;
16994;SDS011;8614;48.522;9.206;2024-01-15T11:02:34;13.13;;;12.30;;
16994;SDS011;8614;48.522;9.206;2024-01-15T11:05:02;12.43;;;11.50;;
16994;SDS011;8614;48.522;9.206;2024-01-15T11:07:30;12.20;;;11.50;;
16994;SDS011;8614;48.522;9.206;2024-01-15T11:09:57;12.37;;;11.60;;
16994;SDS011;8614;48.522;9.206;2024-01-15T11:12:24;11.97;;;11.27;;
16994;SDS011;8614;48.522;9.206;2024-01-15T11:14:52;12.70;;;11.80;;
16994;SDS011;8614;48.522;9.206;2024-01-15T11:17:30;12.67;;;11.87;;
16994;SDS011;8614;48.522;9.206;2024-01-15T11:20:28;12.70;;;11.87;;
16994;SDS011;8614;48.522;9.206;2024-01-15T11:22:56;13.00;;;12.10;;
16994;SDS011;8614;48.522;9.206;2024-01-15T11:25:24;12.67;;;11.87;;
16994;SDS011;8614;48.522;9.206;2024-01-15T11:28:01;13.20;;;12.30;;
16994;SDS011;8614;48.522;9.206;2024-01-15T11:30:28;13.40;;;12.43;;
16994;SDS011;8614;48.522;9.206;2024-01-15T11:32:55;13.80;;;12.90;;
16994;SDS011;8614;48.522;9.206;2024-01-15T11:35:23;13.87;;;12.77;;
16994;SDS011;8614;48.522;9.206;2024-01-15T11:38:26;13.50;;;12.60;;
16994;SDS011;8614;48.522;9.206;2024-01-15T11:40:54;13.10;;;12.20;;
16994;SDS011;8614;48.522;9.206;2024-01-15T11:43:20;13.63;;;12.73;;
16994;SDS011;8614;48.522;9.206;2024-01-15T11:45:49;13.50;;;12.50;;
16994;SDS011;8614;48.522;9.206;2024-01-15T11:48:18;13.27;;;12.37;;
16994;SDS011;8614;48.522;9.206;2024-01-15T11:50:49;13.73;;;12.70;;
16994;SDS011;8614;48.522;9.206;2024-01-15T11:53:17;13.90;;;12.90;;
16994;SDS011;8614;48.522;9.206;2024-01-15T11:55:53;12.73;;;11.93;;
16994;SDS011;8614;48.522;9.206;2024-01-15T11:58:24;13.93;;;12.93;;
16994;SDS011;8614;48.522;9.206;2024-01-15T12:00:51;13.80;;;12.73;;
16994;SDS011;8614;48.522;9.206;2024-01-15T12:03:20;13.63;;;12.63;;
16994;SDS011;8614;48.522;9.206;2024-01-15T12:05:48;14.10;;;13.13;;
16994;SDS011;8614;48.522;9.206;2024-01-15T12:08:20;14.10;;;13.10;;
16994;SDS011;8614;48.522;9.206;2024-01-15T12:10:47;13.90;;;12.90;;
16994;SDS011;8614;48.522;9.206;2024-01-15T12:13:14;13.43;;;12.43;;
16994;SDS011;8614;48.522;9.206;2024-01-15T12:15:43;13.53;;;12.63;;
16994;SDS011;8614;48.522;9.206;2024-01-15T12:18:11;13.93;;;12.83;;
16994;SDS011;8614;48.522;9.206;2024-01-15T12:20:39;13.60;;;12.60;;
16994;SDS011;8614;48.522;9.206;2024-01-15T12:23:09;13.20;;;12.27;;
16994;SDS011;8614;48.522;9.206;2024-01-15T12:25:36;14.00;;;13.00;;
16994;SDS011;8614;48.522;9.206;2024-01-15T12:28:05;14.70;;;13.60;;
16994;SDS011;8614;48.522;9.206;2024-01-15T12:30:32;13.50;;;12.60;;
16994;SDS011;8614;48.522;9.206;2024-01-15T12:33:01;13.93;;;12.93;;
16994;SDS011;8614;48.522;9.206;2024-01-15T12:35:29;13.57;;;12.63;;
16994;SDS011;8614;48.522;9.206;2024-01-15T12:37:56;13.47;;;12.47;;
16994;SDS011;8614;48.522;9.206;2024-01-15T12:40:24;13.40;;;12.50;;
16994;SDS011;8614;48.522;9.206;2024-01-15T12:42:58;14.60;;;13.43;;
16994;SDS011;8614;48.522;9.206;2024-01-15T12:45:52;14.47;;;13.43;;
16994;SDS011;8614;48.522;9.206;2024-01-15T12:48:19;14.00;;;13.00;;
16994;SDS011;8614;48.522;9.206;2024-01-15T12:50:46;14.27;;;13.17;;
16994;SDS011;8614;48.522;9.206;2024-01-15T12:53:13;14.63;;;13.57;;
16994;SDS011;8614;48.522;9.206;2024-01-15T12:55:41;15.33;;;13.97;;
16994;SDS011;8614;48.522;9.206;2024-01-15T12:58:08;14.67;;;13.57;;
16994;SDS011;8614;48.522;9.206;2024-01-15T13:00:35;14.53;;;13.47;;
16994;SDS011;8614;48.522;9.206;2024-01-15T13:03:02;14.77;;;13.67;;
16994;SDS011;8614;48.522;9.206;2024-01-15T13:05:29;14.20;;;13.00;;
16994;SDS011;8614;48.522;9.206;2024-01-15T13:07:58;14.77;;;13.37;;
16994;SDS011;8614;48.522;9.206;2024-01-15T13:10:25;14.57;;;13.37;;
16994;SDS011;8614;48.522;9.206;2024-01-15T13:12:56;15.00;;;13.70;;
16994;SDS011;8614;48.522;9.206;2024-01-15T13:15:23;15.10;;;13.87;;
16994;SDS011;8614;48.522;9.206;2024-01-15T13:17:50;14.80;;;13.60;;
16994;SDS011;8614;48.522;9.206;2024-01-15T13:20:16;15.10;;;13.90;;
16994;SDS011;8614;48.522;9.206;2024-01-15T13:22:43;14.93;;;13.73;;
16994;SDS011;8614;48.522;9.206;2024-01-15T13:25:11;15.30;;;14.00;;
16994;SDS011;8614;48.522;9.206;2024-01-15T13:27:37;14.87;;;13.50;;
16994;SDS011;8614;48.522;9.206;2024-01-15T13:30:06;14.80;;;13.50;;
16994;SDS011;8614;48.522;9.206;2024-01-15T13:32:34;14.53;;;13.33;;
16994;SDS011;8614;48.522;9.206;2024-01-15T13:35:01;15.23;;;13.93;;
16994;SDS011;8614;48.522;9.206;2024-01-15T13:37:30;15.43;;;14.17;;
16994;SDS011;8614;48.522;9.206;2024-01-15T13:39:57;15.60;;;14.30;;
16994;SDS011;8614;48.522;9.206;2024-01-15T13:42:24;15.57;;;14.37;;
16994;SDS011;8614;48.522;9.206;2024-01-15T13:44:52;16.30;;;15.00;;
16994;SDS011;8614;48.522;9.206;2024-01-15T13:47:20;16.37;;;14.97;;
16994;SDS011;8614;48.522;9.206;2024-01-15T13:49:47;16.50;;;15.10;;
16994;SDS011;8614;48.522;9.206;2024-01-15T13:52:14;15.90;;;14.40;;
16994;SDS011;8614;48.522;9.206;2024-01-15T13:54:43;16.10;;;14.70;;
16994;SDS011;8614;48.522;9.206;2024-01-15T13:57:09;15.77;;;14.57;;
16994;SDS011;8614;48.522;9.206;2024-01-15T13:59:36;15.73;;;14.37;;
16994;SDS011;8614;48.522;9.206;2024-01-15T14:02:03;15.47;;;14.27;;
16994;SDS011;8614;48.522;9.206;2024-01-15T14:04:32;15.77;;;14.57;;
16994;SDS011;8614;48.522;9.206;2024-01-15T14:06:59;16.57;;;15.20;;
16994;SDS011;8614;48.522;9.206;2024-01-15T14:09:26;16.73;;;15.23;;
16994;SDS011;8614;48.522;9.206;2024-01-15T14:11:52;16.47;;;15.10;;
16994;SDS011;8614;48.522;9.206;2024-01-15T14:14:19;16.73;;;15.33;;
16994;SDS011;8614;48.522;9.206;2024-01-15T14:16:46;15.93;;;14.67;;
16994;SDS011;8614;48.522;9.206;2024-01-15T14:19:13;15.20;;;13.97;;
16994;SDS011;8614;48.522;9.206;2024-01-15T14:21:41;16.47;;;15.07;;
16994;SDS011;8614;48.522;9.206;2024-01-15T14:24:08;16.37;;;15.07;;
16994;SDS011;8614;48.522;9.206;2024-01-15T14:26:35;16.30;;;15.00;;
16994;SDS011;8614;48.522;9.206;2024-01-15T14:29:01;15.00;;;13.80;;
16994;SDS011;8614;48.522;9.206;2024-01-15T14:31:28;16.60;;;15.20;;
16994;SDS011;8614;48.522;9.206;2024-01-15T14:33:55;16.40;;;15.00;;
16994;SDS011;8614;48.522;9.206;2024-01-15T14:36:23;16.60;;;15.30;;